sensor_id;sensor_type;location;lat;lon;timestamp;temperature;humidity
8043;DHT22;4064;48.132;11.366;2023-02-10T00:01:28;-3.40;99.90
8043;DHT22;4064;48.132;11.366;2023-02-10T00:03:54;-3.50;99.90
8043;DHT22;4064;48.132;11.366;2023-02-10T00:06:23;-3.50;99.90
8043;DHT22;4064;48.132;11.366;2023-02-10T00:08:51;-3.50;99.90
8043;DHT22;4064;48.132;11.366;2023-02-10T00:11:17;-3.50;99.90
8043;DHT22;4064;48.132;11.366;2023-02-10T00:13:44;-3.50;99.90
8043;DHT22;4064;48.132;11.366;2023-02-10T00:16:14;-3.50;99.90
8043;DHT22;4064;48.132;11.366;2023-02-10T00:18:40;-3.50;99.90
8043;DHT22;4064;48.132;11.366;2023-02-10T00:21:13;-3.50;99.90
8043;DHT22;4064;48.132;11.366;2023-02-10T00:23:39;-3.50;99.90
8043;DHT22;4064;48.132;11.366;2023-02-10T00:26:06;-3.40;99.90
8043;DHT22;4064;48.132;11.366;2023-02-10T00:28:33;-3.40;99.90
8043;DHT22;4064;48.132;11.366;2023-02-10T00:31:04;-3.40;99.90
8043;DHT22;4064;48.132;11.366;2023-02-10T00:33:30;-3.40;99.90
8043;DHT22;4064;48.132;11.366;2023-02-10T00:35:55;-3.50;99.90
8043;DHT22;4064;48.132;11.366;2023-02-10T00:38:21;-3.50;99.90
8043;DHT22;4064;48.132;11.366;2023-02-10T00:40:46;-3.50;99.90
8043;DHT22;4064;48.132;11.366;2023-02-10T00:43:12;-3.50;99.90
8043;DHT22;4064;48.132;11.366;2023-02-10T00:45:38;-3.50;99.90
8043;DHT22;4064;48.132;11.366;2023-02-10T00:48:03;-3.50;99.90
8043;DHT22;4064;48.132;11.366;2023-02-10T00:50:29;-3.50;99.90
8043;DHT22;4064;48.132;11.366;2023-02-10T00:52:54;-3.50;99.90
8043;DHT22;4064;48.132;11.366;2023-02-10T00:55:20;-3.40;99.90
8043;DHT22;4064;48.132;11.366;2023-02-10T00:57:45;-3.50;99.90
8043;DHT22;4064;48.132;11.366;2023-02-10T01:00:11;-3.50;99.90
8043;DHT22;4064;48.132;11.366;2023-02-10T01:02:37;-3.40;99.90
8043;DHT22;4064;48.132;11.366;2023-02-10T01:05:03;-3.40;99.90
8043;DHT22;4064;48.132;11.366;2023-02-10T01:07:29;-3.40;99.90
8043;DHT22;4064;48.132;11.366;2023-02-10T01:09:55;-3.40;99.90
8043;DHT22;4064;48.132;11.366;2023-02-10T01:12:20;-3.40;99.90
8043;DHT22;4064;48.132;11.366;2023-02-10T01:14:46;-3.50;99.90
8043;DHT22;4064;48.132;11.366;2023-02-10T01:17:11;-3.50;99.90
8043;DHT22;4064;48.132;11.366;2023-02-10T01:19:37;-3.50;99.90
8043;DHT22;4064;48.132;11.366;2023-02-10T01:22:03;-3.50;99.90
8043;DHT22;4064;48.132;11.366;2023-02-10T01:24:28;-3.50;99.90
8043;DHT22;4064;48.132;11.366;2023-02-10T01:26:54;-3.60;99.90
8043;DHT22;4064;48.132;11.366;2023-02-10T01:29:19;-3.60;99.90
8043;DHT22;4064;48.132;11.366;2023-02-10T01:31:45;-3.70;99.90
8043;DHT22;4064;48.132;11.366;2023-02-10T01:34:11;-3.60;99.90
8043;DHT22;4064;48.132;11.366;2023-02-10T01:36:37;-3.70;99.90
8043;DHT22;4064;48.132;11.366;2023-02-10T01:39:03;-3.70;99.90
8043;DHT22;4064;48.132;11.366;2023-02-10T01:41:28;-3.70;99.90
8043;DHT22;4064;48.132;11.366;2023-02-10T01:46:30;-3.70;99.90
8043;DHT22;4064;48.132;11.366;2023-02-10T01:48:58;-3.70;99.90
8043;DHT22;4064;48.132;11.366;2023-02-10T01:51:38;-3.70;99.90
8043;DHT22;4064;48.132;11.366;2023-02-10T01:54:05;-3.70;99.90
8043;DHT22;4064;48.132;11.366;2023-02-10T01:56:35;-3.70;99.90
8043;DHT22;4064;48.132;11.366;2023-02-10T01:59:00;-3.70;99.90
8043;DHT22;4064;48.132;11.366;2023-02-10T02:01:26;-3.70;99.90
8043;DHT22;4064;48.132;11.366;2023-02-10T02:03:52;-3.70;99.90
8043;DHT22;4064;48.132;11.366;2023-02-10T02:06:19;-3.70;99.90
8043;DHT22;4064;48.132;11.366;2023-02-10T02:08:45;-3.70;99.90
8043;DHT22;4064;48.132;11.366;2023-02-10T02:11:23;-3.70;99.90
8043;DHT22;4064;48.132;11.366;2023-02-10T02:30:16;-3.60;99.90
8043;DHT22;4064;48.132;11.366;2023-02-10T02:35:43;-3.70;99.90
8043;DHT22;4064;48.132;11.366;2023-02-10T02:38:10;-3.70;99.90
8043;DHT22;4064;48.132;11.366;2023-02-10T02:40:36;-3.70;99.90
8043;DHT22;4064;48.132;11.366;2023-02-10T02:43:02;-3.70;99.90
8043;DHT22;4064;48.132;11.366;2023-02-10T02:45:54;-3.70;99.90
8043;DHT22;4064;48.132;11.366;2023-02-10T02:48:38;-3.80;99.90
8043;DHT22;4064;48.132;11.366;2023-02-10T02:51:17;-3.80;99.90
8043;DHT22;4064;48.132;11.366;2023-02-10T02:56:39;-3.80;99.90
8043;DHT22;4064;48.132;11.366;2023-02-10T02:59:25;-3.80;99.90
8043;DHT22;4064;48.132;11.366;2023-02-10T03:01:58;-3.80;99.90
8043;DHT22;4064;48.132;11.366;2023-02-10T03:04:33;-3.80;99.90
8043;DHT22;4064;48.132;11.366;2023-02-10T03:06:59;-3.80;99.90
8043;DHT22;4064;48.132;11.366;2023-02-10T03:09:26;-3.80;99.90
8043;DHT22;4064;48.132;11.366;2023-02-10T03:11:52;-3.80;99.90
8043;DHT22;4064;48.132;11.366;2023-02-10T03:14:17;-3.80;99.90
8043;DHT22;4064;48.132;11.366;2023-02-10T03:16:43;-3.80;99.90
8043;DHT22;4064;48.132;11.366;2023-02-10T03:19:09;-3.80;99.90
8043;DHT22;4064;48.132;11.366;2023-02-10T03:21:35;-3.80;99.90
8043;DHT22;4064;48.132;11.366;2023-02-10T03:24:00;-3.80;99.90
8043;DHT22;4064;48.132;11.366;2023-02-10T03:26:27;-3.90;99.90
8043;DHT22;4064;48.132;11.366;2023-02-10T03:28:53;-3.90;99.90
8043;DHT22;4064;48.132;11.366;2023-02-10T03:31:20;-3.90;99.90
8043;DHT22;4064;48.132;11.366;2023-02-10T03:33:45;-3.90;99.90
8043;DHT22;4064;48.132;11.366;2023-02-10T03:36:11;-3.90;99.90
8043;DHT22;4064;48.132;11.366;2023-02-10T03:38:36;-3.90;99.90
8043;DHT22;4064;48.132;11.366;2023-02-10T03:41:02;-3.90;99.90
8043;DHT22;4064;48.132;11.366;2023-02-10T03:43:28;-4.00;99.90
8043;DHT22;4064;48.132;11.366;2023-02-10T03:45:54;-4.00;99.90
8043;DHT22;4064;48.132;11.366;2023-02-10T03:48:19;-4.00;99.90
8043;DHT22;4064;48.132;11.366;2023-02-10T03:50:48;-4.10;99.90
8043;DHT22;4064;48.132;11.366;2023-02-10T03:53:13;-4.10;99.90
8043;DHT22;4064;48.132;11.366;2023-02-10T03:55:39;-4.10;99.90
8043;DHT22;4064;48.132;11.366;2023-02-10T03:58:05;-4.10;99.90
8043;DHT22;4064;48.132;11.366;2023-02-10T04:00:31;-4.10;99.90
8043;DHT22;4064;48.132;11.366;2023-02-10T04:02:57;-4.10;99.90
8043;DHT22;4064;48.132;11.366;2023-02-10T04:05:22;-4.00;99.90
8043;DHT22;4064;48.132;11.366;2023-02-10T04:07:48;-4.00;99.90
8043;DHT22;4064;48.132;11.366;2023-02-10T04:10:14;-4.10;99.90
8043;DHT22;4064;48.132;11.366;2023-02-10T04:12:39;-4.00;99.90
8043;DHT22;4064;48.132;11.366;2023-02-10T04:15:06;-4.10;99.90
8043;DHT22;4064;48.132;11.366;2023-02-10T04:17:32;-4.00;99.90
8043;DHT22;4064;48.132;11.366;2023-02-10T04:19:58;-4.00;99.90
8043;DHT22;4064;48.132;11.366;2023-02-10T04:22:23;-4.00;99.90
8043;DHT22;4064;48.132;11.366;2023-02-10T04:24:49;-4.00;99.90
8043;DHT22;4064;48.132;11.366;2023-02-10T04:27:15;-4.00;99.90
8043;DHT22;4064;48.132;11.366;2023-02-10T04:29:40;-4.10;99.90
8043;DHT22;4064;48.132;11.366;2023-02-10T04:32:06;-4.10;99.90
8043;DHT22;4064;48.132;11.366;2023-02-10T04:34:33;-4.10;99.90
8043;DHT22;4064;48.132;11.366;2023-02-10T04:36:59;-4.20;99.90
8043;DHT22;4064;48.132;11.366;2023-02-10T04:39:24;-4.20;99.90
8043;DHT22;4064;48.132;11.366;2023-02-10T04:41:51;-4.20;99.90
8043;DHT22;4064;48.132;11.366;2023-02-10T04:44:16;-4.30;99.90
8043;DHT22;4064;48.132;11.366;2023-02-10T04:46:42;-4.30;99.90
8043;DHT22;4064;48.132;11.366;2023-02-10T04:49:08;-4.30;99.90
8043;DHT22;4064;48.132;11.366;2023-02-10T04:51:33;-4.30;99.90
8043;DHT22;4064;48.132;11.366;2023-02-10T04:53:59;-4.40;99.90
8043;DHT22;4064;48.132;11.366;2023-02-10T04:56:25;-4.40;99.90
8043;DHT22;4064;48.132;11.366;2023-02-10T04:58:50;-4.30;99.90
8043;DHT22;4064;48.132;11.366;2023-02-10T05:01:16;-4.30;99.90
8043;DHT22;4064;48.132;11.366;2023-02-10T05:03:41;-4.30;99.90
8043;DHT22;4064;48.132;11.366;2023-02-10T05:06:13;-4.30;99.90
8043;DHT22;4064;48.132;11.366;2023-02-10T05:08:39;-4.40;99.90
8043;DHT22;4064;48.132;11.366;2023-02-10T05:11:12;-4.40;99.90
8043;DHT22;4064;48.132;11.366;2023-02-10T05:13:38;-4.40;99.90
8043;DHT22;4064;48.132;11.366;2023-02-10T05:16:06;-4.40;99.90
8043;DHT22;4064;48.132;11.366;2023-02-10T05:18:32;-4.40;99.90
8043;DHT22;4064;48.132;11.366;2023-02-10T05:20:59;-4.40;99.90
8043;DHT22;4064;48.132;11.366;2023-02-10T05:23:25;-4.40;99.90
8043;DHT22;4064;48.132;11.366;2023-02-10T05:25:52;-4.40;99.90
8043;DHT22;4064;48.132;11.366;2023-02-10T05:28:18;-4.50;99.90
8043;DHT22;4064;48.132;11.366;2023-02-10T05:30:43;-4.50;99.90
8043;DHT22;4064;48.132;11.366;2023-02-10T05:33:09;-4.50;99.90
8043;DHT22;4064;48.132;11.366;2023-02-10T05:35:34;-4.50;99.90
8043;DHT22;4064;48.132;11.366;2023-02-10T05:38:00;-4.50;99.90
8043;DHT22;4064;48.132;11.366;2023-02-10T05:40:29;-4.60;99.90
8043;DHT22;4064;48.132;11.366;2023-02-10T05:42:55;-4.60;99.90
8043;DHT22;4064;48.132;11.366;2023-02-10T05:45:21;-4.60;99.90
8043;DHT22;4064;48.132;11.366;2023-02-10T05:47:47;-4.60;99.90
8043;DHT22;4064;48.132;11.366;2023-02-10T05:50:12;-4.70;99.90
8043;DHT22;4064;48.132;11.366;2023-02-10T05:52:38;-4.70;99.90
8043;DHT22;4064;48.132;11.366;2023-02-10T05:55:04;-4.70;99.90
8043;DHT22;4064;48.132;11.366;2023-02-10T05:57:30;-4.80;99.90
8043;DHT22;4064;48.132;11.366;2023-02-10T05:59:55;-4.80;99.90
8043;DHT22;4064;48.132;11.366;2023-02-10T06:02:21;-4.90;99.90
8043;DHT22;4064;48.132;11.366;2023-02-10T06:04:47;-4.90;99.90
8043;DHT22;4064;48.132;11.366;2023-02-10T06:07:12;-4.90;99.90
8043;DHT22;4064;48.132;11.366;2023-02-10T06:09:38;-4.90;99.90
8043;DHT22;4064;48.132;11.366;2023-02-10T06:12:05;-5.00;99.90
8043;DHT22;4064;48.132;11.366;2023-02-10T06:14:31;-5.00;99.90
8043;DHT22;4064;48.132;11.366;2023-02-10T06:16:57;-5.00;99.90
8043;DHT22;4064;48.132;11.366;2023-02-10T06:19:23;-5.00;99.90
8043;DHT22;4064;48.132;11.366;2023-02-10T06:21:52;-5.00;99.90
8043;DHT22;4064;48.132;11.366;2023-02-10T06:24:17;-4.90;99.90
8043;DHT22;4064;48.132;11.366;2023-02-10T06:26:43;-5.00;99.90
8043;DHT22;4064;48.132;11.366;2023-02-10T06:29:09;-5.00;99.90
8043;DHT22;4064;48.132;11.366;2023-02-10T06:31:34;-5.00;99.90
8043;DHT22;4064;48.132;11.366;2023-02-10T06:34:00;-5.00;99.90
8043;DHT22;4064;48.132;11.366;2023-02-10T06:36:26;-5.00;99.90
8043;DHT22;4064;48.132;11.366;2023-02-10T06:38:51;-4.90;99.90
8043;DHT22;4064;48.132;11.366;2023-02-10T06:41:18;-5.00;99.90
8043;DHT22;4064;48.132;11.366;2023-02-10T06:43:44;-5.00;99.90
8043;DHT22;4064;48.132;11.366;2023-02-10T06:46:09;-4.90;99.90
8043;DHT22;4064;48.132;11.366;2023-02-10T06:48:36;-4.90;99.90
8043;DHT22;4064;48.132;11.366;2023-02-10T06:51:01;-4.90;99.90
8043;DHT22;4064;48.132;11.366;2023-02-10T06:53:27;-4.90;99.90
8043;DHT22;4064;48.132;11.366;2023-02-10T06:55:56;-4.90;99.90
8043;DHT22;4064;48.132;11.366;2023-02-10T06:58:22;-4.80;99.90
8043;DHT22;4064;48.132;11.366;2023-02-10T07:00:50;-4.90;99.90
8043;DHT22;4064;48.132;11.366;2023-02-10T07:03:16;-4.80;99.90
8043;DHT22;4064;48.132;11.366;2023-02-10T07:05:45;-4.70;99.90
8043;DHT22;4064;48.132;11.366;2023-02-10T07:08:10;-4.70;99.90
8043;DHT22;4064;48.132;11.366;2023-02-10T07:10:36;-4.60;99.90
8043;DHT22;4064;48.132;11.366;2023-02-10T07:13:02;-4.60;99.90
8043;DHT22;4064;48.132;11.366;2023-02-10T07:15:27;-4.40;99.90
8043;DHT22;4064;48.132;11.366;2023-02-10T07:17:53;-4.40;99.90
8043;DHT22;4064;48.132;11.366;2023-02-10T07:20:19;-4.30;99.90
8043;DHT22;4064;48.132;11.366;2023-02-10T07:22:45;-4.20;99.90
8043;DHT22;4064;48.132;11.366;2023-02-10T07:25:11;-4.10;99.90
8043;DHT22;4064;48.132;11.366;2023-02-10T07:27:36;-4.10;99.90
8043;DHT22;4064;48.132;11.366;2023-02-10T07:30:02;-4.00;99.90
8043;DHT22;4064;48.132;11.366;2023-02-10T07:32:28;-3.90;99.90
8043;DHT22;4064;48.132;11.366;2023-02-10T07:34:53;-3.80;99.90
8043;DHT22;4064;48.132;11.366;2023-02-10T07:37:21;-3.70;99.90
8043;DHT22;4064;48.132;11.366;2023-02-10T07:39:47;-3.60;99.90
8043;DHT22;4064;48.132;11.366;2023-02-10T07:42:13;-3.40;99.90
8043;DHT22;4064;48.132;11.366;2023-02-10T07:44:38;-3.30;99.90
8043;DHT22;4064;48.132;11.366;2023-02-10T07:47:05;-3.20;99.90
8043;DHT22;4064;48.132;11.366;2023-02-10T07:49:30;-3.00;99.90
8043;DHT22;4064;48.132;11.366;2023-02-10T07:51:56;-2.90;99.90
8043;DHT22;4064;48.132;11.366;2023-02-10T07:54:22;-2.80;99.90
8043;DHT22;4064;48.132;11.366;2023-02-10T07:56:48;-2.60;99.90
8043;DHT22;4064;48.132;11.366;2023-02-10T07:59:13;-2.50;99.90
8043;DHT22;4064;48.132;11.366;2023-02-10T08:01:42;-2.30;99.90
8043;DHT22;4064;48.132;11.366;2023-02-10T08:04:12;-2.20;99.90
8043;DHT22;4064;48.132;11.366;2023-02-10T08:06:37;-2.00;99.90
8043;DHT22;4064;48.132;11.366;2023-02-10T08:09:03;-1.80;99.90
8043;DHT22;4064;48.132;11.366;2023-02-10T08:11:29;-1.60;99.90
8043;DHT22;4064;48.132;11.366;2023-02-10T08:13:55;-1.30;99.90
8043;DHT22;4064;48.132;11.366;2023-02-10T08:16:20;-0.60;99.90
8043;DHT22;4064;48.132;11.366;2023-02-10T08:18:46;1.00;99.90
8043;DHT22;4064;48.132;11.366;2023-02-10T08:21:11;2.80;99.90
8043;DHT22;4064;48.132;11.366;2023-02-10T08:23:37;4.40;99.70
8043;DHT22;4064;48.132;11.366;2023-02-10T08:26:08;5.40;93.50
8043;DHT22;4064;48.132;11.366;2023-02-10T08:28:35;6.20;87.10
8043;DHT22;4064;48.132;11.366;2023-02-10T08:31:03;7.00;85.40
8043;DHT22;4064;48.132;11.366;2023-02-10T08:33:29;7.00;78.50
8043;DHT22;4064;48.132;11.366;2023-02-10T08:35:55;7.10;75.10
8043;DHT22;4064;48.132;11.366;2023-02-10T08:38:21;7.00;72.90
8043;DHT22;4064;48.132;11.366;2023-02-10T08:40:56;7.10;70.70
8043;DHT22;4064;48.132;11.366;2023-02-10T08:43:22;6.90;69.50
8043;DHT22;4064;48.132;11.366;2023-02-10T08:45:48;6.60;70.90
8043;DHT22;4064;48.132;11.366;2023-02-10T08:48:13;6.40;68.50
8043;DHT22;4064;48.132;11.366;2023-02-10T08:50:39;5.80;68.70
8043;DHT22;4064;48.132;11.366;2023-02-10T08:53:04;5.60;71.10
8043;DHT22;4064;48.132;11.366;2023-02-10T08:55:30;6.20;72.40
8043;DHT22;4064;48.132;11.366;2023-02-10T08:57:56;6.50;66.50
8043;DHT22;4064;48.132;11.366;2023-02-10T09:00:21;6.50;69.20
8043;DHT22;4064;48.132;11.366;2023-02-10T09:02:52;6.70;68.70
8043;DHT22;4064;48.132;11.366;2023-02-10T09:05:18;7.10;68.80
8043;DHT22;4064;48.132;11.366;2023-02-10T09:07:44;8.10;67.00
8043;DHT22;4064;48.132;11.366;2023-02-10T09:10:11;9.00;64.70
8043;DHT22;4064;48.132;11.366;2023-02-10T09:12:38;8.30;61.00
8043;DHT22;4064;48.132;11.366;2023-02-10T09:15:04;7.20;63.00
8043;DHT22;4064;48.132;11.366;2023-02-10T09:17:30;7.50;65.50
8043;DHT22;4064;48.132;11.366;2023-02-10T09:19:55;7.80;63.20
8043;DHT22;4064;48.132;11.366;2023-02-10T09:22:21;8.00;61.80
8043;DHT22;4064;48.132;11.366;2023-02-10T09:24:47;7.50;62.10
8043;DHT22;4064;48.132;11.366;2023-02-10T09:27:15;7.40;62.80
8043;DHT22;4064;48.132;11.366;2023-02-10T09:29:40;7.70;61.60
8043;DHT22;4064;48.132;11.366;2023-02-10T09:32:06;7.10;61.60
8043;DHT22;4064;48.132;11.366;2023-02-10T09:34:32;7.10;64.00
8043;DHT22;4064;48.132;11.366;2023-02-10T09:36:57;7.30;62.70
8043;DHT22;4064;48.132;11.366;2023-02-10T09:39:27;7.20;62.30
8043;DHT22;4064;48.132;11.366;2023-02-10T09:44:32;7.70;63.20
8043;DHT22;4064;48.132;11.366;2023-02-10T09:50:41;9.70;60.80
8043;DHT22;4064;48.132;11.366;2023-02-10T09:53:14;10.10;57.60
8043;DHT22;4064;48.132;11.366;2023-02-10T09:56:16;9.80;56.90
8043;DHT22;4064;48.132;11.366;2023-02-10T09:58:50;9.60;58.10
8043;DHT22;4064;48.132;11.366;2023-02-10T10:04:24;9.40;57.30
8043;DHT22;4064;48.132;11.366;2023-02-10T10:07:23;9.10;57.40
8043;DHT22;4064;48.132;11.366;2023-02-10T10:10:04;8.80;58.70
8043;DHT22;4064;48.132;11.366;2023-02-10T10:12:30;9.10;59.60
8043;DHT22;4064;48.132;11.366;2023-02-10T10:14:56;9.30;58.70
8043;DHT22;4064;48.132;11.366;2023-02-10T10:30:54;10.30;56.40
8043;DHT22;4064;48.132;11.366;2023-02-10T10:35:54;9.70;55.80
8043;DHT22;4064;48.132;11.366;2023-02-10T10:38:22;9.40;57.00
8043;DHT22;4064;48.132;11.366;2023-02-10T10:40:52;9.50;57.20
8043;DHT22;4064;48.132;11.366;2023-02-10T10:43:47;9.50;57.40
8043;DHT22;4064;48.132;11.366;2023-02-10T10:48:54;9.60;57.70
8043;DHT22;4064;48.132;11.366;2023-02-10T10:51:21;9.70;56.90
8043;DHT22;4064;48.132;11.366;2023-02-10T10:53:49;9.50;57.40
8043;DHT22;4064;48.132;11.366;2023-02-10T10:58:45;9.20;58.00
8043;DHT22;4064;48.132;11.366;2023-02-10T11:01:14;9.20;58.20
8043;DHT22;4064;48.132;11.366;2023-02-10T11:03:40;9.10;58.10
8043;DHT22;4064;48.132;11.366;2023-02-10T11:06:15;8.90;57.00
8043;DHT22;4064;48.132;11.366;2023-02-10T11:08:58;8.80;58.30
8043;DHT22;4064;48.132;11.366;2023-02-10T11:11:40;8.90;58.20
8043;DHT22;4064;48.132;11.366;2023-02-10T11:14:18;8.90;58.20
8043;DHT22;4064;48.132;11.366;2023-02-10T11:16:49;8.90;57.70
8043;DHT22;4064;48.132;11.366;2023-02-10T11:19:30;8.60;58.50
8043;DHT22;4064;48.132;11.366;2023-02-10T11:21:57;8.50;58.40
8043;DHT22;4064;48.132;11.366;2023-02-10T11:24:28;8.50;58.50
8043;DHT22;4064;48.132;11.366;2023-02-10T11:27:14;8.40;58.80
8043;DHT22;4064;48.132;11.366;2023-02-10T11:29:50;8.50;58.30
8043;DHT22;4064;48.132;11.366;2023-02-10T11:32:20;8.30;58.20
8043;DHT22;4064;48.132;11.366;2023-02-10T11:34:48;8.30;59.10
8043;DHT22;4064;48.132;11.366;2023-02-10T11:37:26;8.30;59.10
8043;DHT22;4064;48.132;11.366;2023-02-10T11:39:52;8.30;58.60
8043;DHT22;4064;48.132;11.366;2023-02-10T11:42:28;8.40;58.70
8043;DHT22;4064;48.132;11.366;2023-02-10T11:47:33;8.50;58.10
8043;DHT22;4064;48.132;11.366;2023-02-10T11:49:59;8.60;57.80
8043;DHT22;4064;48.132;11.366;2023-02-10T11:52:27;8.60;58.00
8043;DHT22;4064;48.132;11.366;2023-02-10T11:54:55;8.50;57.40
8043;DHT22;4064;48.132;11.366;2023-02-10T12:00:40;8.30;57.90
8043;DHT22;4064;48.132;11.366;2023-02-10T12:08:49;8.60;58.40
8043;DHT22;4064;48.132;11.366;2023-02-10T12:23:00;8.70;58.20
8043;DHT22;4064;48.132;11.366;2023-02-10T12:25:52;8.80;56.80
8043;DHT22;4064;48.132;11.366;2023-02-10T12:29:07;8.90;56.80
8043;DHT22;4064;48.132;11.366;2023-02-10T12:32:31;9.10;56.70
8043;DHT22;4064;48.132;11.366;2023-02-10T12:38:18;9.10;55.70
8043;DHT22;4064;48.132;11.366;2023-02-10T12:49:18;9.60;57.70
8043;DHT22;4064;48.132;11.366;2023-02-10T12:54:30;9.70;55.70
8043;DHT22;4064;48.132;11.366;2023-02-10T12:57:03;9.80;54.60
8043;DHT22;4064;48.132;11.366;2023-02-10T12:59:45;9.90;55.00
8043;DHT22;4064;48.132;11.366;2023-02-10T13:02:18;9.90;55.80
8043;DHT22;4064;48.132;11.366;2023-02-10T13:04:49;9.90;56.00
8043;DHT22;4064;48.132;11.366;2023-02-10T13:07:23;10.20;55.30
8043;DHT22;4064;48.132;11.366;2023-02-10T13:10:09;10.30;55.40
8043;DHT22;4064;48.132;11.366;2023-02-10T13:12:43;10.30;55.00
8043;DHT22;4064;48.132;11.366;2023-02-10T13:15:21;10.30;54.10
8043;DHT22;4064;48.132;11.366;2023-02-10T13:17:50;10.30;54.40
8043;DHT22;4064;48.132;11.366;2023-02-10T13:34:26;9.90;54.30
8043;DHT22;4064;48.132;11.366;2023-02-10T13:37:13;9.90;54.50
8043;DHT22;4064;48.132;11.366;2023-02-10T13:40:34;9.70;54.90
8043;DHT22;4064;48.132;11.366;2023-02-10T13:42:37;9.30;54.20
8043;DHT22;4064;48.132;11.366;2023-02-10T13:47:40;8.60;55.10
8043;DHT22;4064;48.132;11.366;2023-02-10T13:53:04;8.30;56.10
8043;DHT22;4064;48.132;11.366;2023-02-10T13:55:38;7.90;55.30
8043;DHT22;4064;48.132;11.366;2023-02-10T14:00:49;7.50;57.00
8043;DHT22;4064;48.132;11.366;2023-02-10T14:05:52;7.10;56.90
8043;DHT22;4064;48.132;11.366;2023-02-10T14:11:17;6.80;57.80
8043;DHT22;4064;48.132;11.366;2023-02-10T14:14:02;6.70;58.10
8043;DHT22;4064;48.132;11.366;2023-02-10T14:16:31;6.60;58.00
8043;DHT22;4064;48.132;11.366;2023-02-10T14:19:02;6.40;57.80
8043;DHT22;4064;48.132;11.366;2023-02-10T14:21:39;6.40;58.60
8043;DHT22;4064;48.132;11.366;2023-02-10T14:24:15;6.20;58.80
8043;DHT22;4064;48.132;11.366;2023-02-10T14:26:43;6.10;58.90
8043;DHT22;4064;48.132;11.366;2023-02-10T14:29:16;6.10;59.20
8043;DHT22;4064;48.132;11.366;2023-02-10T14:31:45;6.10;59.10
8043;DHT22;4064;48.132;11.366;2023-02-10T14:34:32;6.10;59.30
8043;DHT22;4064;48.132;11.366;2023-02-10T14:37:17;6.10;59.40
8043;DHT22;4064;48.132;11.366;2023-02-10T14:39:58;6.10;60.50
8043;DHT22;4064;48.132;11.366;2023-02-10T14:42:26;6.10;61.70
8043;DHT22;4064;48.132;11.366;2023-02-10T14:44:55;6.10;62.20
8043;DHT22;4064;48.132;11.366;2023-02-10T14:49:57;6.20;62.30
8043;DHT22;4064;48.132;11.366;2023-02-10T14:52:28;6.20;62.00
8043;DHT22;4064;48.132;11.366;2023-02-10T14:54:54;6.20;62.30
8043;DHT22;4064;48.132;11.366;2023-02-10T14:57:22;6.10;62.30
8043;DHT22;4064;48.132;11.366;2023-02-10T14:59:58;6.00;62.60
8043;DHT22;4064;48.132;11.366;2023-02-10T15:02:31;5.90;62.40
8043;DHT22;4064;48.132;11.366;2023-02-10T15:04:59;5.80;62.80
8043;DHT22;4064;48.132;11.366;2023-02-10T15:07:32;5.60;62.20
8043;DHT22;4064;48.132;11.366;2023-02-10T15:10:25;5.50;62.40
8043;DHT22;4064;48.132;11.366;2023-02-10T15:12:51;5.30;62.80
8043;DHT22;4064;48.132;11.366;2023-02-10T15:15:24;5.10;63.20
8043;DHT22;4064;48.132;11.366;2023-02-10T15:17:54;5.00;64.50
8043;DHT22;4064;48.132;11.366;2023-02-10T15:20:30;4.80;65.10
8043;DHT22;4064;48.132;11.366;2023-02-10T15:28:16;4.40;65.30
8043;DHT22;4064;48.132;11.366;2023-02-10T15:33:36;4.20;65.40
8043;DHT22;4064;48.132;11.366;2023-02-10T15:36:14;4.10;65.70
8043;DHT22;4064;48.132;11.366;2023-02-10T15:43:59;3.80;66.80
8043;DHT22;4064;48.132;11.366;2023-02-10T15:46:27;3.70;67.00
8043;DHT22;4064;48.132;11.366;2023-02-10T15:49:11;3.60;67.50
8043;DHT22;4064;48.132;11.366;2023-02-10T15:51:41;3.50;67.90
8043;DHT22;4064;48.132;11.366;2023-02-10T15:54:15;3.40;68.00
8043;DHT22;4064;48.132;11.366;2023-02-10T15:56:41;3.30;68.20
8043;DHT22;4064;48.132;11.366;2023-02-10T15:59:16;3.20;69.00
8043;DHT22;4064;48.132;11.366;2023-02-10T16:01:42;3.10;68.70
8043;DHT22;4064;48.132;11.366;2023-02-10T16:04:08;3.00;69.30
8043;DHT22;4064;48.132;11.366;2023-02-10T16:06:35;2.90;69.40
8043;DHT22;4064;48.132;11.366;2023-02-10T16:09:02;2.80;70.20
8043;DHT22;4064;48.132;11.366;2023-02-10T16:11:27;2.70;70.30
8043;DHT22;4064;48.132;11.366;2023-02-10T16:13:54;2.50;70.50
8043;DHT22;4064;48.132;11.366;2023-02-10T16:16:20;2.40;70.90
8043;DHT22;4064;48.132;11.366;2023-02-10T16:18:46;2.30;71.20
8043;DHT22;4064;48.132;11.366;2023-02-10T16:21:12;2.20;71.70
8043;DHT22;4064;48.132;11.366;2023-02-10T16:23:41;2.10;72.20
8043;DHT22;4064;48.132;11.366;2023-02-10T16:26:08;2.00;72.80
8043;DHT22;4064;48.132;11.366;2023-02-10T16:28:34;1.80;73.10
8043;DHT22;4064;48.132;11.366;2023-02-10T16:31:00;1.70;73.60
8043;DHT22;4064;48.132;11.366;2023-02-10T16:33:25;1.60;74.10
8043;DHT22;4064;48.132;11.366;2023-02-10T16:35:52;1.50;74.60
8043;DHT22;4064;48.132;11.366;2023-02-10T16:38:17;1.40;75.10
8043;DHT22;4064;48.132;11.366;2023-02-10T16:40:44;1.40;75.60
8043;DHT22;4064;48.132;11.366;2023-02-10T16:43:10;1.20;76.40
8043;DHT22;4064;48.132;11.366;2023-02-10T16:45:35;1.10;76.40
8043;DHT22;4064;48.132;11.366;2023-02-10T16:48:03;1.00;77.40
8043;DHT22;4064;48.132;11.366;2023-02-10T16:50:39;0.90;77.40
8043;DHT22;4064;48.132;11.366;2023-02-10T16:53:07;0.80;78.30
8043;DHT22;4064;48.132;11.366;2023-02-10T16:55:34;0.70;79.10
8043;DHT22;4064;48.132;11.366;2023-02-10T16:58:00;0.60;79.60
8043;DHT22;4064;48.132;11.366;2023-02-10T17:00:26;0.60;80.60
8043;DHT22;4064;48.132;11.366;2023-02-10T17:02:52;0.50;81.10
8043;DHT22;4064;48.132;11.366;2023-02-10T17:05:18;0.40;82.10
8043;DHT22;4064;48.132;11.366;2023-02-10T17:07:44;0.30;82.60
8043;DHT22;4064;48.132;11.366;2023-02-10T17:10:20;0.20;83.50
8043;DHT22;4064;48.132;11.366;2023-02-10T17:12:46;0.20;84.20
8043;DHT22;4064;48.132;11.366;2023-02-10T17:15:13;0.10;84.70
8043;DHT22;4064;48.132;11.366;2023-02-10T17:17:39;0.00;86.30
8043;DHT22;4064;48.132;11.366;2023-02-10T17:20:06;0.00;86.40
8043;DHT22;4064;48.132;11.366;2023-02-10T17:22:32;-0.10;87.50
8043;DHT22;4064;48.132;11.366;2023-02-10T17:24:57;-0.20;87.80
8043;DHT22;4064;48.132;11.366;2023-02-10T17:27:24;-0.20;88.60
8043;DHT22;4064;48.132;11.366;2023-02-10T17:29:50;-0.30;88.90
8043;DHT22;4064;48.132;11.366;2023-02-10T17:32:16;-0.40;90.10
8043;DHT22;4064;48.132;11.366;2023-02-10T17:34:41;-0.40;90.70
8043;DHT22;4064;48.132;11.366;2023-02-10T17:37:07;-0.50;91.00
8043;DHT22;4064;48.132;11.366;2023-02-10T17:39:36;-0.50;91.30
8043;DHT22;4064;48.132;11.366;2023-02-10T17:42:03;-0.60;91.60
8043;DHT22;4064;48.132;11.366;2023-02-10T17:44:29;-0.60;92.00
8043;DHT22;4064;48.132;11.366;2023-02-10T17:46:56;-0.60;92.50
8043;DHT22;4064;48.132;11.366;2023-02-10T17:49:24;-0.70;92.90
8043;DHT22;4064;48.132;11.366;2023-02-10T17:51:50;-0.70;93.10
8043;DHT22;4064;48.132;11.366;2023-02-10T17:54:16;-0.80;93.10
8043;DHT22;4064;48.132;11.366;2023-02-10T17:56:43;-0.90;93.70
8043;DHT22;4064;48.132;11.366;2023-02-10T17:59:09;-0.90;94.10
8043;DHT22;4064;48.132;11.366;2023-02-10T18:01:34;-1.00;94.40
8043;DHT22;4064;48.132;11.366;2023-02-10T18:04:00;-1.00;94.70
8043;DHT22;4064;48.132;11.366;2023-02-10T18:06:26;-1.10;95.00
8043;DHT22;4064;48.132;11.366;2023-02-10T18:08:56;-1.10;95.60
8043;DHT22;4064;48.132;11.366;2023-02-10T18:11:22;-1.10;96.00
8043;DHT22;4064;48.132;11.366;2023-02-10T18:13:48;-1.20;96.20
8043;DHT22;4064;48.132;11.366;2023-02-10T18:16:14;-1.10;96.60
8043;DHT22;4064;48.132;11.366;2023-02-10T18:18:41;-1.20;96.70